Time;durP1;ratioP1;P1;durP2;ratioP2;P2;SDS_P1;SDS_P2;PMS_P1;PMS_P2;Temp;Humidity;BMP_temperature;BMP_pressure;BME280_temperature;BME280_humidity;BME280_pressure;Samples;Min_cycle;Max_cycle;Signal;HPM_P1;HPM_P2
2022/08/30 00:03:26;;;;;;;7.77;4.50;;;18.80;99.90;;;;;;5051950;28;20428;-43
2022/08/30 00:05:52;;;;;;;6.07;4.60;;;18.80;99.90;;;;;;5052109;28;20458;-44
2022/08/30 00:08:18;;;;;;;5.27;4.63;;;18.90;99.90;;;;;;5050462;28;20890;-45
2022/08/30 00:10:44;;;;;;;6.23;4.93;;;18.90;99.90;;;;;;5051553;28;20428;-43
2022/08/30 00:13:12;;;;;;;6.83;4.27;;;18.90;99.90;;;;;;5051809;28;20264;-46
2022/08/30 00:15:40;;;;;;;6.27;4.30;;;18.90;99.90;;;;;;5051736;28;20432;-43
2022/08/30 00:18:06;;;;;;;6.27;4.47;;;18.90;99.90;;;;;;5049997;28;20853;-45
2022/08/30 00:20:33;;;;;;;6.33;5.20;;;18.90;99.90;;;;;;5063259;28;20432;-45
2022/08/30 00:22:59;;;;;;;5.17;4.00;;;18.90;99.90;;;;;;5051735;28;20456;-46
2022/08/30 00:25:26;;;;;;;4.83;4.43;;;18.90;99.90;;;;;;5050135;28;20485;-47
2022/08/30 00:27:51;;;;;;;7.10;4.60;;;18.90;99.90;;;;;;5050929;28;20517;-46
2022/08/30 00:30:18;;;;;;;5.10;4.30;;;18.90;99.90;;;;;;5051634;28;20424;-45
2022/08/30 00:32:43;;;;;;;8.80;5.20;;;18.90;99.90;;;;;;5050372;28;20182;-48
2022/08/30 00:35:11;;;;;;;5.67;4.47;;;18.90;99.90;;;;;;5051785;28;20493;-44
2022/08/30 00:37:37;;;;;;;6.60;4.77;;;18.90;99.90;;;;;;5050792;28;20190;-44
2022/08/30 00:40:04;;;;;;;5.03;4.60;;;18.80;99.90;;;;;;5051233;28;20432;-41
2022/08/30 00:42:31;;;;;;;8.53;4.80;;;18.80;99.90;;;;;;5051311;28;20464;-46
2022/08/30 00:44:58;;;;;;;6.60;4.97;;;18.70;99.90;;;;;;5051583;28;20454;-49
2022/08/30 00:47:23;;;;;;;6.30;4.87;;;18.70;99.90;;;;;;5050639;28;20436;-44
2022/08/30 00:49:53;;;;;;;6.50;5.17;;;18.70;99.90;;;;;;5051465;28;20550;-44
2022/08/30 00:52:22;;;;;;;5.87;5.17;;;18.60;99.90;;;;;;5051053;28;20193;-46
2022/08/30 00:54:50;;;;;;;7.10;5.50;;;18.70;99.90;;;;;;5051266;28;20468;-44
2022/08/30 00:57:17;;;;;;;6.47;4.20;;;18.60;99.90;;;;;;5049476;28;20466;-44
2022/08/30 00:59:45;;;;;;;4.83;4.30;;;18.70;99.90;;;;;;5051221;28;20424;-46
2022/08/30 01:02:12;;;;;;;5.53;5.00;;;18.70;99.90;;;;;;5050986;28;20770;-44
2022/08/30 01:04:40;;;;;;;6.33;5.07;;;18.70;99.90;;;;;;5051091;28;20431;-46
2022/08/30 01:07:07;;;;;;;4.57;4.17;;;18.70;99.90;;;;;;5049835;28;20475;-42
2022/08/30 01:09:34;;;;;;;9.03;4.47;;;18.70;99.90;;;;;;5050875;28;20475;-44
2022/08/30 01:12:00;;;;;;;9.63;4.43;;;18.70;99.90;;;;;;5050947;28;20432;-46
2022/08/30 01:14:26;;;;;;;6.93;4.63;;;18.70;99.90;;;;;;5049357;28;20433;-46
2022/08/30 01:16:56;;;;;;;5.43;4.50;;;18.60;99.90;;;;;;5050186;28;20542;-46
2022/08/30 01:19:31;;;;;;;7.57;4.50;;;18.60;99.90;;;;;;5055767;28;20443;-45
2022/08/30 01:22:04;;;;;;;5.17;4.37;;;18.60;99.90;;;;;;5055989;28;20440;-47
2022/08/30 01:24:31;;;;;;;5.93;5.30;;;18.60;99.90;;;;;;5050673;28;20443;-45
2022/08/30 01:26:57;;;;;;;5.53;5.03;;;18.60;99.90;;;;;;5050035;28;20527;-47
2022/08/30 01:29:24;;;;;;;4.77;4.23;;;18.60;99.90;;;;;;5049294;28;21066;-47
2022/08/30 01:31:50;;;;;;;6.83;4.27;;;18.50;99.90;;;;;;5050476;28;20193;-47
2022/08/30 01:34:16;;;;;;;5.80;4.40;;;18.70;99.90;;;;;;5050158;28;20451;-46
2022/08/30 01:36:45;;;;;;;8.20;4.37;;;18.60;99.90;;;;;;5049652;28;20428;-44
2022/08/30 01:39:15;;;;;;;6.40;4.13;;;18.60;99.90;;;;;;5050371;28;20198;-47
2022/08/30 01:41:42;;;;;;;4.90;4.40;;;18.50;99.90;;;;;;5050250;28;20884;-42
2022/08/30 01:44:09;;;;;;;6.20;4.10;;;18.50;99.90;;;;;;5050256;28;20433;-43
2022/08/30 01:46:42;;;;;;;5.00;4.50;;;18.60;99.90;;;;;;5049409;28;20432;-49
2022/08/30 01:49:12;;;;;;;4.50;4.10;;;18.60;99.90;;;;;;5049842;28;20484;-43
2022/08/30 01:51:38;;;;;;;6.67;4.37;;;18.50;99.90;;;;;;5050019;28;20416;-45
2022/08/30 01:54:04;;;;;;;5.13;4.33;;;18.50;99.90;;;;;;5050112;28;20485;-42
2022/08/30 01:56:30;;;;;;;7.00;3.67;;;18.40;99.90;;;;;;5049109;28;21138;-42
2022/08/30 01:58:57;;;;;;;4.70;4.30;;;18.40;99.90;;;;;;5049755;28;20787;-44
2022/08/30 02:01:27;;;;;;;5.27;4.00;;;18.40;99.90;;;;;;5049675;28;20784;-41
2022/08/30 02:03:54;;;;;;;7.10;4.37;;;18.40;99.90;;;;;;5050139;28;20493;-44
2022/08/30 02:06:21;;;;;;;4.70;3.93;;;18.30;99.90;;;;;;5049617;28;20507;-43
2022/08/30 02:08:48;;;;;;;4.90;4.30;;;18.30;99.90;;;;;;5049184;28;20887;-47
2022/08/30 02:11:14;;;;;;;4.87;4.30;;;18.30;99.90;;;;;;5049655;28;20435;-47
2022/08/30 02:13:41;;;;;;;4.37;3.97;;;18.30;99.90;;;;;;5049716;28;20877;-45
2022/08/30 02:16:09;;;;;;;11.60;4.13;;;18.30;99.90;;;;;;5049802;28;20542;-48
2022/08/30 02:18:36;;;;;;;4.20;3.80;;;18.40;99.90;;;;;;5049174;28;20832;-46
2022/08/30 02:21:02;;;;;;;4.30;3.90;;;18.30;99.90;;;;;;5061769;28;20440;-48
2022/08/30 02:23:28;;;;;;;4.33;3.93;;;18.30;99.90;;;;;;5049939;28;20425;-47
2022/08/30 02:25:54;;;;;;;4.33;3.93;;;18.30;99.90;;;;;;5049575;28;20535;-42
2022/08/30 02:28:20;;;;;;;4.30;3.90;;;18.30;99.90;;;;;;5048785;28;20251;-45
2022/08/30 02:30:46;;;;;;;4.40;4.00;;;18.30;99.90;;;;;;5048942;28;20468;-44
2022/08/30 02:33:12;;;;;;;4.27;3.87;;;18.20;99.90;;;;;;5049542;28;20186;-47
2022/08/30 02:35:38;;;;;;;4.23;3.87;;;18.20;99.90;;;;;;5049426;28;21012;-47
2022/08/30 02:38:04;;;;;;;3.90;3.60;;;18.20;99.90;;;;;;5047662;28;20432;-47
2022/08/30 02:40:30;;;;;;;4.70;4.30;;;18.20;99.90;;;;;;5049312;28;20271;-45
2022/08/30 02:42:56;;;;;;;5.53;4.50;;;18.20;99.90;;;;;;5049305;28;20428;-42
2022/08/30 02:45:22;;;;;;;4.33;4.03;;;18.20;99.90;;;;;;5049413;28;20656;-44
2022/08/30 02:47:48;;;;;;;4.87;4.37;;;18.20;99.90;;;;;;5048872;28;20217;-45
2022/08/30 02:50:14;;;;;;;4.70;3.97;;;18.30;99.90;;;;;;5049419;28;20938;-47
2022/08/30 02:52:41;;;;;;;6.93;4.23;;;18.20;99.90;;;;;;5049161;28;20217;-47
2022/08/30 02:55:07;;;;;;;5.17;3.93;;;18.20;99.90;;;;;;5049412;28;20927;-47
2022/08/30 02:57:33;;;;;;;4.50;4.10;;;18.20;99.90;;;;;;5047417;28;20507;-49
2022/08/30 03:00:00;;;;;;;4.50;4.10;;;18.20;99.90;;;;;;5049558;28;20454;-45
2022/08/30 03:02:26;;;;;;;4.20;3.90;;;18.10;99.90;;;;;;5047875;28;20437;-47
2022/08/30 03:04:52;;;;;;;4.50;3.87;;;18.10;99.90;;;;;;5048039;28;20454;-43
2022/08/30 03:07:18;;;;;;;4.57;4.00;;;18.10;99.90;;;;;;5047376;28;20420;-43
2022/08/30 03:09:44;;;;;;;4.60;4.10;;;18.10;99.90;;;;;;5048057;28;20459;-48
2022/08/30 03:12:11;;;;;;;4.50;4.20;;;18.10;99.90;;;;;;5048838;28;20420;-44
2022/08/30 03:14:37;;;;;;;4.70;4.00;;;18.10;99.90;;;;;;5049328;28;20431;-47
2022/08/30 03:17:05;;;;;;;4.67;4.00;;;18.10;99.90;;;;;;5048259;28;20428;-47
2022/08/30 03:19:32;;;;;;;4.20;3.80;;;18.10;99.90;;;;;;5055667;28;20926;-45
2022/08/30 03:21:58;;;;;;;4.53;3.70;;;18.10;99.90;;;;;;5054315;28;20432;-45
2022/08/30 03:24:24;;;;;;;4.50;4.07;;;18.10;99.90;;;;;;5049185;28;20436;-44
2022/08/30 03:26:51;;;;;;;4.80;4.40;;;18.00;99.90;;;;;;5048029;28;21095;-42
2022/08/30 03:29:16;;;;;;;4.17;3.80;;;17.90;99.90;;;;;;5049046;28;20554;-45
2022/08/30 03:31:42;;;;;;;4.50;4.10;;;18.00;99.90;;;;;;5049041;28;20519;-45
2022/08/30 03:34:09;;;;;;;4.17;3.87;;;17.90;99.90;;;;;;5049129;28;20660;-46
2022/08/30 03:36:37;;;;;;;4.73;4.33;;;17.90;99.90;;;;;;5048434;28;20301;-44
2022/08/30 03:39:04;;;;;;;4.90;4.40;;;17.80;99.90;;;;;;5048825;28;20768;-45
2022/08/30 03:41:31;;;;;;;4.30;3.97;;;17.80;99.90;;;;;;5048807;28;20440;-45
2022/08/30 03:43:57;;;;;;;4.80;4.33;;;17.90;99.90;;;;;;5050989;28;20817;-44
2022/08/30 03:46:23;;;;;;;6.20;4.17;;;17.80;99.90;;;;;;5051434;28;20435;-45
2022/08/30 03:48:50;;;;;;;4.77;4.37;;;17.70;99.90;;;;;;5051824;28;20456;-44
2022/08/30 03:51:17;;;;;;;5.43;4.60;;;17.60;99.90;;;;;;5052391;28;20185;-44
2022/08/30 03:53:43;;;;;;;5.23;4.70;;;17.60;99.90;;;;;;5051987;28;20432;-46
2022/08/30 03:56:09;;;;;;;5.63;4.90;;;17.60;99.90;;;;;;5050145;28;20477;-48
2022/08/30 03:58:35;;;;;;;7.77;4.90;;;17.50;99.90;;;;;;5051628;28;20186;-42
2022/08/30 04:01:01;;;;;;;5.77;4.50;;;17.50;99.90;;;;;;5052059;28;20438;-46
2022/08/30 04:03:27;;;;;;;5.10;4.70;;;17.40;99.90;;;;;;5052105;28;20463;-45
2022/08/30 04:05:53;;;;;;;6.80;4.60;;;17.40;99.90;;;;;;5050623;28;20239;-45
2022/08/30 04:08:20;;;;;;;4.63;4.23;;;17.30;99.90;;;;;;5051075;28;20459;-47
2022/08/30 04:10:46;;;;;;;7.83;5.23;;;17.30;99.90;;;;;;5052191;28;20420;-45
2022/08/30 04:13:14;;;;;;;5.33;4.20;;;17.30;99.90;;;;;;5052046;28;20423;-43
2022/08/30 04:15:40;;;;;;;4.70;4.10;;;17.30;99.90;;;;;;5051915;28;20431;-46
2022/08/30 04:18:05;;;;;;;5.57;5.07;;;17.30;99.90;;;;;;5051288;28;20439;-48
2022/08/30 04:20:31;;;;;;;4.80;4.40;;;17.30;99.90;;;;;;5063035;28;20432;-42
2022/08/30 04:22:57;;;;;;;5.50;5.00;;;17.40;99.90;;;;;;5051475;28;20189;-46
2022/08/30 04:25:23;;;;;;;5.80;5.10;;;17.40;99.90;;;;;;5051663;28;20205;-46
2022/08/30 04:27:48;;;;;;;5.87;4.67;;;17.40;99.90;;;;;;5051064;28;20990;-46
2022/08/30 04:30:16;;;;;;;5.23;4.73;;;17.40;99.90;;;;;;5051604;28;20261;-47
2022/08/30 04:32:43;;;;;;;6.30;5.30;;;17.40;99.90;;;;;;5051651;28;20201;-48
2022/08/30 04:35:09;;;;;;;6.07;5.13;;;17.40;99.90;;;;;;5051506;28;20815;-44
2022/08/30 04:37:36;;;;;;;6.03;5.53;;;17.30;99.90;;;;;;5049282;28;20515;-46
2022/08/30 04:40:03;;;;;;;6.60;5.40;;;17.20;99.90;;;;;;5051429;28;20555;-43
2022/08/30 04:42:32;;;;;;;5.73;5.13;;;17.10;99.90;;;;;;5051388;28;21079;-42
2022/08/30 04:45:00;;;;;;;5.83;5.33;;;17.10;99.90;;;;;;5044451;28;20432;-44
2022/08/30 04:47:26;;;;;;;5.80;5.30;;;17.10;99.90;;;;;;5043674;28;20443;-45
2022/08/30 04:49:52;;;;;;;6.30;5.40;;;17.10;99.90;;;;;;5050809;28;20424;-44
2022/08/30 04:52:18;;;;;;;8.80;5.67;;;17.10;99.90;;;;;;5049860;28;20217;-44
2022/08/30 04:54:44;;;;;;;5.70;5.20;;;17.10;99.90;;;;;;5050750;28;20464;-47
2022/08/30 04:57:09;;;;;;;7.30;5.77;;;17.00;99.90;;;;;;5049335;28;20189;-46
2022/08/30 04:59:37;;;;;;;6.77;6.03;;;17.00;99.90;;;;;;5055787;28;20197;-46
2022/08/30 05:02:03;;;;;;;6.20;5.10;;;17.10;99.90;;;;;;5050843;28;20255;-44
2022/08/30 05:04:29;;;;;;;6.23;5.73;;;17.00;99.90;;;;;;5049813;28;20424;-45
2022/08/30 05:06:55;;;;;;;7.00;6.30;;;16.90;99.90;;;;;;5049988;28;20466;-47
2022/08/30 05:09:21;;;;;;;6.60;6.00;;;16.90;99.90;;;;;;5050909;28;20680;-47
2022/08/30 05:11:47;;;;;;;6.43;5.83;;;16.90;99.90;;;;;;5050910;28;20222;-43
2022/08/30 05:14:13;;;;;;;6.27;5.67;;;16.90;99.90;;;;;;5050947;28;20595;-45
2022/08/30 05:16:40;;;;;;;6.40;5.73;;;16.90;99.90;;;;;;5050104;28;20578;-44
2022/08/30 05:19:06;;;;;;;6.20;5.60;;;16.90;99.90;;;;;;5053291;28;20268;-44
2022/08/30 05:21:32;;;;;;;7.10;6.20;;;17.00;99.90;;;;;;5059376;28;20435;-42
2022/08/30 05:23:59;;;;;;;6.77;6.07;;;17.00;99.90;;;;;;5050528;28;20447;-47
2022/08/30 05:26:29;;;;;;;5.90;5.30;;;17.00;99.90;;;;;;5051385;28;21003;-47
2022/08/30 05:28:55;;;;;;;7.67;6.40;;;17.00;99.90;;;;;;5054363;28;20455;-47
2022/08/30 05:31:27;;;;;;;6.17;5.57;;;17.00;99.90;;;;;;5070277;28;20751;-47
2022/08/30 05:33:54;;;;;;;8.17;5.57;;;17.10;99.90;;;;;;5053360;28;20431;-44
2022/08/30 05:36:22;;;;;;;6.20;5.60;;;17.20;99.90;;;;;;5047649;28;20786;-47
2022/08/30 05:38:49;;;;;;;6.43;5.70;;;17.20;99.90;;;;;;5049786;28;20478;-47
2022/08/30 05:41:17;;;;;;;7.80;6.23;;;17.30;99.90;;;;;;5050465;28;20436;-45
2022/08/30 05:43:43;;;;;;;6.20;5.67;;;17.40;99.90;;;;;;5048736;28;20428;-46
2022/08/30 05:46:11;;;;;;;5.73;5.23;;;17.30;99.90;;;;;;5053461;28;21028;-45
2022/08/30 05:48:37;;;;;;;5.60;5.00;;;17.30;99.90;;;;;;5043854;28;20475;-45
2022/08/30 05:51:10;;;;;;;6.97;6.07;;;17.30;99.90;;;;;;5050218;28;20901;-46
2022/08/30 05:53:37;;;;;;;7.30;5.20;;;17.30;99.90;;;;;;5045430;28;20425;-45
2022/08/30 05:56:06;;;;;;;7.10;5.60;;;17.30;99.90;;;;;;5043465;28;20440;-42
2022/08/30 05:58:32;;;;;;;6.00;5.50;;;17.30;99.90;;;;;;5048227;28;20796;-41
2022/08/30 06:00:58;;;;;;;6.57;5.97;;;17.30;99.90;;;;;;5049582;28;20423;-41
2022/08/30 06:03:24;;;;;;;5.77;5.27;;;17.40;99.90;;;;;;5049517;28;20420;-44
2022/08/30 06:05:50;;;;;;;6.03;5.53;;;17.40;99.90;;;;;;5048421;28;20535;-42
2022/08/30 06:08:16;;;;;;;5.93;5.23;;;17.40;99.90;;;;;;5051578;28;20863;-47
2022/08/30 06:10:42;;;;;;;6.73;5.83;;;17.50;99.90;;;;;;5065449;28;20217;-45
2022/08/30 06:13:08;;;;;;;6.77;5.53;;;17.60;99.90;;;;;;5069568;28;20461;-46
2022/08/30 06:15:34;;;;;;;6.43;5.77;;;17.60;99.90;;;;;;5069510;28;20279;-43
2022/08/30 06:17:59;;;;;;;7.33;4.97;;;17.70;99.90;;;;;;5064476;28;21114;-45
2022/08/30 06:20:25;;;;;;;5.53;5.00;;;17.90;99.90;;;;;;5045850;28;20196;-47
2022/08/30 06:22:51;;;;;;;6.93;5.20;;;18.00;99.90;;;;;;5048890;28;21068;-44
2022/08/30 06:25:17;;;;;;;7.97;5.40;;;18.10;99.90;;;;;;5051291;28;20189;-44
2022/08/30 06:27:43;;;;;;;5.97;5.40;;;18.20;99.90;;;;;;5068984;28;20683;-43
2022/08/30 06:30:11;;;;;;;6.07;5.47;;;18.10;99.90;;;;;;5069234;28;20447;-48
2022/08/30 06:32:37;;;;;;;6.20;5.70;;;18.10;99.90;;;;;;5069804;28;20874;-42
2022/08/30 06:35:05;;;;;;;6.80;6.10;;;18.10;99.90;;;;;;5068208;28;20503;-46
2022/08/30 06:37:31;;;;;;;6.60;6.00;;;17.90;99.90;;;;;;5052124;28;20421;-49
2022/08/30 06:39:59;;;;;;;6.10;5.50;;;17.90;99.90;;;;;;5051385;28;20775;-43
2022/08/30 06:42:30;;;;;;;8.20;6.13;;;18.00;99.90;;;;;;5049267;28;20424;-44
2022/08/30 06:44:57;;;;;;;6.23;5.73;;;18.20;99.90;;;;;;5049510;28;20432;-44
2022/08/30 06:47:23;;;;;;;6.67;6.00;;;18.40;99.90;;;;;;5048846;28;20825;-45
2022/08/30 06:49:49;;;;;;;7.30;6.70;;;18.50;99.90;;;;;;5048834;28;20482;-44
2022/08/30 06:52:15;;;;;;;7.00;6.40;;;18.70;99.90;;;;;;5049528;28;20428;-43
2022/08/30 06:54:40;;;;;;;7.50;6.70;;;18.80;99.90;;;;;;5049279;28;20364;-43
2022/08/30 06:57:06;;;;;;;8.90;7.60;;;19.00;99.90;;;;;;5046937;28;20191;-49
2022/08/30 06:59:32;;;;;;;8.07;7.33;;;19.00;99.90;;;;;;5049261;28;20201;-46
2022/08/30 07:01:58;;;;;;;7.47;6.77;;;19.10;99.90;;;;;;5049339;28;20605;-49
2022/08/30 07:04:24;;;;;;;7.30;6.60;;;19.20;99.90;;;;;;5049429;28;20428;-44
2022/08/30 07:06:50;;;;;;;10.17;6.77;;;19.20;99.90;;;;;;5048470;28;20274;-45
2022/08/30 07:09:16;;;;;;;8.57;6.53;;;19.20;99.90;;;;;;5049136;28;20460;-44
2022/08/30 07:11:43;;;;;;;7.80;7.07;;;19.30;99.90;;;;;;5048868;28;20913;-41
2022/08/30 07:14:09;;;;;;;8.23;7.43;;;19.30;99.90;;;;;;5049297;28;20239;-45
2022/08/30 07:16:35;;;;;;;10.00;8.47;;;19.30;99.90;;;;;;5048274;28;20440;-49
2022/08/30 07:19:02;;;;;;;8.30;7.57;;;19.30;99.90;;;;;;5056510;28;20480;-46
2022/08/30 07:21:32;;;;;;;9.60;7.37;;;19.40;99.90;;;;;;5062479;28;20518;-45
2022/08/30 07:23:59;;;;;;;10.27;7.53;;;19.50;99.90;;;;;;5052955;28;20443;-44
2022/08/30 07:26:32;;;;;;;9.53;8.63;;;19.50;99.90;;;;;;5052489;28;20761;-46
2022/08/30 07:28:58;;;;;;;8.93;7.33;;;19.60;99.90;;;;;;5047081;28;20468;-46
2022/08/30 07:31:24;;;;;;;7.67;7.07;;;19.60;99.90;;;;;;5048706;28;20428;-42
2022/08/30 07:33:51;;;;;;;9.20;7.53;;;19.60;99.90;;;;;;5051629;28;20504;-45
2022/08/30 07:36:17;;;;;;;10.80;7.77;;;19.60;99.90;;;;;;5052617;28;20428;-46
2022/08/30 07:38:44;;;;;;;9.50;8.60;;;19.60;99.90;;;;;;5050490;28;20978;-44
2022/08/30 07:41:16;;;;;;;8.83;8.03;;;19.60;99.90;;;;;;5065317;28;20496;-45
2022/08/30 07:43:42;;;;;;;9.93;7.73;;;19.50;99.90;;;;;;5072452;28;20473;-48
2022/08/30 07:46:07;;;;;;;8.47;7.70;;;19.50;99.90;;;;;;5052273;28;20455;-47
2022/08/30 07:48:34;;;;;;;7.00;6.40;;;19.50;99.90;;;;;;5039969;28;20214;-44
2022/08/30 07:51:00;;;;;;;8.17;7.47;;;19.50;99.90;;;;;;5065343;28;20190;-44
2022/08/30 07:53:26;;;;;;;8.50;7.60;;;19.50;99.90;;;;;;5051776;28;20933;-45
2022/08/30 07:55:52;;;;;;;8.00;7.20;;;19.50;99.90;;;;;;5050769;28;20428;-44
2022/08/30 07:58:18;;;;;;;8.40;7.53;;;19.50;99.90;;;;;;5051382;28;20915;-47
2022/08/30 08:00:44;;;;;;;7.10;6.50;;;19.50;99.90;;;;;;5052095;28;20486;-47
2022/08/30 08:03:09;;;;;;;11.47;7.30;;;19.50;99.90;;;;;;5051798;28;20196;-46
2022/08/30 08:05:38;;;;;;;7.80;7.00;;;19.60;99.90;;;;;;5060894;28;20209;-42
2022/08/30 08:08:04;;;;;;;7.37;6.67;;;19.70;99.90;;;;;;5050495;28;20205;-45
2022/08/30 08:10:31;;;;;;;7.60;6.87;;;19.70;99.90;;;;;;5051012;28;20427;-43
2022/08/30 08:12:56;;;;;;;9.53;6.67;;;19.80;99.90;;;;;;5051526;28;20521;-44
2022/08/30 08:15:23;;;;;;;7.63;6.83;;;19.70;99.90;;;;;;5051585;28;20459;-45
2022/08/30 08:17:48;;;;;;;6.90;6.20;;;19.70;99.90;;;;;;5050930;28;20189;-47
2022/08/30 08:20:14;;;;;;;8.10;7.30;;;19.80;99.90;;;;;;5061806;28;20428;-46
2022/08/30 08:22:40;;;;;;;8.80;7.27;;;19.80;99.90;;;;;;5051495;28;20186;-47
2022/08/30 08:25:06;;;;;;;8.20;7.27;;;20.00;99.90;;;;;;5051652;28;21160;-48
2022/08/30 08:27:32;;;;;;;7.40;6.70;;;20.00;99.90;;;;;;5049515;28;20196;-44
2022/08/30 08:29:57;;;;;;;6.73;5.80;;;20.10;99.90;;;;;;5050635;28;20468;-49
2022/08/30 08:32:23;;;;;;;7.13;5.77;;;20.20;99.90;;;;;;5051340;28;20254;-45
2022/08/30 08:34:49;;;;;;;7.00;6.40;;;20.20;99.90;;;;;;5051444;28;20182;-47
2022/08/30 08:37:14;;;;;;;7.63;5.47;;;20.20;99.90;;;;;;5050186;28;20185;-42
2022/08/30 08:39:40;;;;;;;6.10;5.50;;;20.20;99.90;;;;;;5051329;28;20714;-41
2022/08/30 08:42:26;;;;;;;7.17;6.57;;;20.20;99.90;;;;;;5051085;28;20218;-44
2022/08/30 08:45:03;;;;;;;7.30;5.30;;;20.30;99.90;;;;;;5051306;28;20227;-44
2022/08/30 08:47:36;;;;;;;10.07;6.80;;;20.40;99.90;;;;;;5050152;28;20486;-45
2022/08/30 08:50:07;;;;;;;5.57;5.07;;;20.50;99.90;;;;;;5038993;28;20432;-45
2022/08/30 08:55:47;;;;;;;8.57;5.27;;;20.60;99.90;;;;;;5042190;28;20431;-46
2022/08/30 08:58:22;;;;;;;7.87;5.57;;;20.70;99.90;;;;;;5050200;28;20428;-44
2022/08/30 09:00:47;;;;;;;5.77;5.27;;;20.70;99.90;;;;;;5051114;28;20538;-45
2022/08/30 09:03:15;;;;;;;5.73;4.93;;;20.90;99.90;;;;;;5051069;28;20486;-47
2022/08/30 09:05:42;;;;;;;7.03;5.27;;;20.90;99.90;;;;;;5050808;28;20213;-46
2022/08/30 09:08:15;;;;;;;6.57;4.37;;;20.90;99.90;;;;;;5050329;28;20452;-46
2022/08/30 09:11:05;;;;;;;7.10;4.90;;;20.80;99.90;;;;;;5050784;28;20430;-46
2022/08/30 09:13:32;;;;;;;6.87;5.00;;;20.80;99.90;;;;;;5050976;28;20519;-49
2022/08/30 09:15:58;;;;;;;6.83;5.00;;;20.80;99.90;;;;;;5050723;28;20416;-42
2022/08/30 09:18:46;;;;;;;7.43;4.97;;;20.80;99.90;;;;;;5050194;28;20424;-44
2022/08/30 09:21:19;;;;;;;7.70;4.97;;;20.80;99.90;;;;;;5038869;28;20949;-48
2022/08/30 09:23:58;;;;;;;5.27;3.90;;;21.00;99.90;;;;;;5050761;28;20536;-49
2022/08/30 09:26:30;;;;;;;5.47;4.67;;;21.10;99.90;;;;;;5050431;28;20477;-45
2022/08/30 09:28:57;;;;;;;5.93;4.60;;;21.20;99.90;;;;;;5050125;28;21011;-46
2022/08/30 09:31:25;;;;;;;3.90;3.60;;;21.30;99.90;;;;;;5050174;28;20511;-45
2022/08/30 09:34:14;;;;;;;5.13;4.63;;;21.40;99.90;;;;;;5050497;28;20503;-46
2022/08/30 09:36:42;;;;;;;6.53;4.83;;;21.50;99.90;;;;;;5048334;28;20459;-42
2022/08/30 09:39:19;;;;;;;11.10;4.40;;;21.60;99.90;;;;;;5050410;28;20428;-48
2022/08/30 09:41:48;;;;;;;6.40;4.83;;;21.80;99.90;;;;;;5049931;28;20497;-47
2022/08/30 09:44:15;;;;;;;5.40;4.90;;;21.90;99.90;;;;;;5050463;28;21053;-48
2022/08/30 09:46:49;;;;;;;5.53;4.10;;;22.00;99.90;;;;;;5049455;28;20521;-46
2022/08/30 09:49:38;;;;;;;8.17;4.60;;;22.10;99.90;;;;;;5050204;28;20460;-45
2022/08/30 09:52:19;;;;;;;4.80;3.80;;;22.30;99.90;;;;;;5049801;28;20418;-46
2022/08/30 09:55:07;;;;;;;5.30;4.50;;;22.50;99.90;;;;;;5050221;28;20412;-44
2022/08/30 09:57:55;;;;;;;5.70;4.07;;;22.60;99.90;;;;;;5047767;28;20460;-48
2022/08/30 10:00:27;;;;;;;7.37;4.90;;;22.70;99.90;;;;;;5049958;28;20452;-42
2022/08/30 10:03:01;;;;;;;4.40;4.00;;;22.60;99.90;;;;;;5049727;28;20503;-48
2022/08/30 10:05:37;;;;;;;4.23;3.50;;;22.60;99.90;;;;;;5050036;28;20494;-49
2022/08/30 10:08:32;;;;;;;4.00;3.60;;;22.60;99.90;;;;;;5049124;28;20459;-46
2022/08/30 10:11:19;;;;;;;4.30;3.63;;;22.70;99.90;;;;;;5049690;28;20448;-44
2022/08/30 10:14:12;;;;;;;4.53;3.87;;;22.70;99.90;;;;;;5049631;28;20478;-42
2022/08/30 10:17:24;;;;;;;4.10;3.60;;;22.70;99.90;;;;;;5050101;28;20485;-44
2022/08/30 10:20:19;;;;;;;7.87;4.40;;;22.60;99.90;;;;;;5076006;28;20427;-47
2022/08/30 10:22:58;;;;;;;5.30;3.27;;;22.80;99.90;;;;;;5066990;28;20423;-47
2022/08/30 10:25:49;;;;;;;5.10;3.90;;;22.90;99.90;;;;;;5039747;28;20462;-44
2022/08/30 10:28:40;;;;;;;4.20;3.80;;;23.20;99.90;;;;;;5049215;28;20547;-44
2022/08/30 10:31:22;;;;;;;6.53;4.13;;;23.30;99.90;;;;;;5049844;28;20431;-45
2022/08/30 10:33:54;;;;;;;4.23;3.83;;;23.30;99.90;;;;;;5049553;28;20420;-47
2022/08/30 10:36:29;;;;;;;4.40;3.83;;;23.40;99.90;;;;;;5049756;28;20853;-50
2022/08/30 10:38:57;;;;;;;3.47;3.17;;;23.50;99.90;;;;;;5036590;28;20431;-45
2022/08/30 10:41:40;;;;;;;4.53;4.10;;;23.70;99.90;;;;;;5049424;28;20428;-45
2022/08/30 10:44:16;;;;;;;4.60;3.83;;;23.70;99.90;;;;;;5049481;28;20779;-42
2022/08/30 10:47:01;;;;;;;6.20;3.77;;;23.80;99.90;;;;;;5048879;28;20461;-46
2022/08/30 10:49:35;;;;;;;9.63;4.40;;;23.80;99.90;;;;;;5049546;28;20464;-42
2022/08/30 10:52:21;;;;;;;5.73;3.40;;;23.80;99.90;;;;;;5049883;28;20459;-43
2022/08/30 10:54:58;;;;;;;5.67;3.90;;;23.80;99.90;;;;;;5053401;28;20424;-46
2022/08/30 10:57:24;;;;;;;6.23;3.60;;;23.90;99.90;;;;;;5051247;28;20415;-47
2022/08/30 11:00:30;;;;;;;6.50;3.23;;;23.90;99.90;;;;;;5053606;28;21001;-47
2022/08/30 11:03:18;;;;;;;3.73;3.30;;;24.00;99.90;;;;;;5052883;28;20428;-42
2022/08/30 11:06:13;;;;;;;3.80;3.47;;;24.10;99.90;;;;;;5053247;28;20447;-43
2022/08/30 11:09:20;;;;;;;4.57;4.00;;;24.10;99.90;;;;;;5052579;28;20456;-44
2022/08/30 11:12:15;;;;;;;5.07;3.70;;;24.20;99.90;;;;;;5053042;28;20450;-45
2022/08/30 11:14:43;;;;;;;5.20;3.50;;;24.30;99.90;;;;;;5053241;28;20416;-41
2022/08/30 11:17:24;;;;;;;6.80;3.30;;;24.40;99.90;;;;;;5052410;28;20423;-46
2022/08/30 11:19:51;;;;;;;4.03;3.63;;;24.40;99.90;;;;;;5058006;28;20431;-46
2022/08/30 11:22:24;;;;;;;3.40;3.10;;;24.40;99.90;;;;;;5056247;28;20435;-43
2022/08/30 11:25:35;;;;;;;3.73;3.30;;;24.40;99.90;;;;;;5073195;28;20435;-45
2022/08/30 11:28:01;;;;;;;5.37;3.67;;;24.50;99.90;;;;;;5071653;28;20520;-47
2022/08/30 11:30:27;;;;;;;3.47;3.17;;;24.30;99.90;;;;;;5073006;28;20419;-46
2022/08/30 11:33:23;;;;;;;4.37;3.30;;;24.20;99.90;;;;;;5072655;28;20445;-47
2022/08/30 11:35:51;;;;;;;5.20;2.87;;;24.10;99.90;;;;;;5069730;28;20256;-44
2022/08/30 11:38:25;;;;;;;8.37;4.27;;;24.10;99.90;;;;;;5051630;28;20998;-44
2022/08/30 11:41:05;;;;;;;5.80;3.13;;;24.00;99.90;;;;;;5052771;28;20427;-45
2022/08/30 11:43:34;;;;;;;3.40;3.10;;;23.90;99.90;;;;;;5052495;28;20424;-47
2022/08/30 11:46:26;;;;;;;3.50;3.20;;;24.00;99.90;;;;;;5052632;28;20428;-44
2022/08/30 11:49:13;;;;;;;4.13;3.50;;;24.00;99.90;;;;;;5051277;28;21143;-49
2022/08/30 11:51:42;;;;;;;8.77;3.47;;;24.10;99.90;;;;;;5052471;28;20497;-47
2022/08/30 11:54:18;;;;;;;4.30;3.33;;;24.10;99.90;;;;;;5052422;28;20511;-49
2022/08/30 11:56:57;;;;;;;3.53;3.13;;;24.20;99.90;;;;;;5050343;28;20503;-47
2022/08/30 12:00:00;;;;;;;3.57;3.10;;;24.40;99.90;;;;;;5052085;28;20486;-47
2022/08/30 12:02:50;;;;;;;7.90;4.60;;;24.50;99.90;;;;;;5052168;28;20423;-46
2022/08/30 12:05:34;;;;;;;3.53;3.23;;;24.60;99.90;;;;;;5032864;28;20456;-42
2022/08/30 12:08:02;;;;;;;4.43;4.00;;;24.70;99.90;;;;;;5051336;28;20424;-45
2022/08/30 12:10:48;;;;;;;3.13;2.83;;;24.80;99.90;;;;;;5052118;28;20424;-43
2022/08/30 12:13:41;;;;;;;6.33;3.60;;;25.00;99.80;;;;;;5051936;28;20424;-48
2022/08/30 12:16:07;;;;;;;3.70;3.40;;;25.00;98.90;;;;;;5052004;28;20428;-45
2022/08/30 12:18:44;;;;;;;4.20;3.80;;;25.10;99.10;;;;;;5051279;28;20470;-43
2022/08/30 12:21:29;;;;;;;3.77;3.47;;;25.10;98.10;;;;;;5040057;28;20535;-44
2022/08/30 12:24:17;;;;;;;4.10;3.80;;;25.10;98.20;;;;;;5051971;28;20505;-43
2022/08/30 12:26:45;;;;;;;4.80;3.90;;;25.00;98.70;;;;;;5051055;28;21115;-45
2022/08/30 12:29:18;;;;;;;4.67;3.10;;;25.00;98.40;;;;;;5050487;28;20468;-43
2022/08/30 12:32:16;;;;;;;6.50;3.50;;;25.00;98.40;;;;;;5050161;28;20456;-44
2022/08/30 12:34:42;;;;;;;3.93;3.60;;;25.00;98.90;;;;;;5051404;28;20420;-47
2022/08/30 12:37:28;;;;;;;4.67;4.27;;;25.00;98.60;;;;;;5050922;28;20420;-45
2022/08/30 12:40:09;;;;;;;3.83;3.53;;;25.00;96.90;;;;;;5051573;28;20247;-45
2022/08/30 12:42:40;;;;;;;3.90;3.60;;;25.10;97.50;;;;;;5051290;28;20467;-46
2022/08/30 12:45:15;;;;;;;4.40;4.00;;;25.10;97.80;;;;;;5051258;28;21002;-46
2022/08/30 12:47:50;;;;;;;7.00;3.83;;;25.10;96.90;;;;;;5050414;28;20462;-47
2022/08/30 12:50:29;;;;;;;7.87;3.83;;;25.10;97.50;;;;;;5051381;28;20424;-45
2022/08/30 12:53:00;;;;;;;4.50;3.57;;;25.20;98.20;;;;;;5051113;28;20428;-45
2022/08/30 12:55:30;;;;;;;3.90;3.60;;;25.20;97.30;;;;;;5051058;28;20428;-46
2022/08/30 12:58:10;;;;;;;4.80;4.07;;;25.20;96.40;;;;;;5049008;28;20466;-46
2022/08/30 13:00:46;;;;;;;3.90;3.60;;;25.20;97.10;;;;;;5051130;28;20425;-45
2022/08/30 13:04:16;;;;;;;4.70;4.10;;;25.20;97.60;;;;;;5050881;28;20498;-48
2022/08/30 13:06:50;;;;;;;5.40;4.20;;;25.20;96.90;;;;;;5013161;28;20453;-45
2022/08/30 13:09:28;;;;;;;5.73;3.50;;;25.10;97.30;;;;;;5048185;28;20476;-44